Main page
METAR-TAF:

METAR-TAF

Airports :

Ganja International Airport

Ganja, Azerbaijan

latitude: 40-44N, longitude: 046-24E, elevation: 330 m

Current weather observation

The report was made 29 minutes ago, at 10:00 UTC
Wind 6 kt from the East
Temperature 2°C
Humidity 93%
Pressure 1024 hPa
Visibility: 5000 m
Overcast at a height of 1000 ft
light drizzle, mist

METAR: UBBG 191000Z 08006KT 5000 -DZ BR OVC010 02/01 Q1024 R12/190065 NOSIG

Time: 14:29 (10:29 UTC)

Forecast

The report was made 5 hours and 29 minutes ago, at 05:00 UTC
Forecast valid from 19 at 06 UTC to 20 at 06 UTC
Wind 4 kt from variable directions
Visibility: 6000 m
Scattered clouds at a height of 1000 ft
Broken clouds at a height of 5000 ft
Becoming
from 19 at 08 UTC to 19 at 10 UTC
Wind 8 kt from the East
Scattered clouds at a height of 500 ft
Overcast at a height of 2000 ft
light rain

TAF: UBBG 190500Z 1906/2006 VRB04KT 6000 SCT010 BKN050 TX05/1912Z TNM02/2003Z BECMG 1908/1910 09008KT -RA SCT005 OVC020

Weather observations and forecasts of more than 4000 airports (METAR and TAF reports).

The available stations are represented by yellow and red dots on the map.

Hover mouse over dot to see the name of the station.

Then click to see weather observations and forecasts.

To change the map : click on the green buttons with a black cross to zoom in, on the green button with a dash to zoom out, or on the green arrows for adjacent maps.


METAR-TAF: